sensor_id;sensor_type;location;lat;lon;timestamp;temperature;humidity
6373;DHT22;3219;51.362;7.074;2023-03-13T00:01:22;8.80;99.90
6373;DHT22;3219;51.362;7.074;2023-03-13T00:03:49;8.80;99.90
6373;DHT22;3219;51.362;7.074;2023-03-13T00:06:18;8.90;99.90
6373;DHT22;3219;51.362;7.074;2023-03-13T00:08:44;8.90;99.90
6373;DHT22;3219;51.362;7.074;2023-03-13T00:11:12;8.90;99.90
6373;DHT22;3219;51.362;7.074;2023-03-13T00:13:40;8.90;99.90
6373;DHT22;3219;51.362;7.074;2023-03-13T00:16:09;8.90;99.90
6373;DHT22;3219;51.362;7.074;2023-03-13T00:18:37;9.00;99.90
6373;DHT22;3219;51.362;7.074;2023-03-13T00:21:05;9.00;99.90
6373;DHT22;3219;51.362;7.074;2023-03-13T00:23:35;9.00;99.90
6373;DHT22;3219;51.362;7.074;2023-03-13T00:26:04;9.00;99.90
6373;DHT22;3219;51.362;7.074;2023-03-13T00:28:32;9.00;99.90
6373;DHT22;3219;51.362;7.074;2023-03-13T00:31:00;9.10;99.90
6373;DHT22;3219;51.362;7.074;2023-03-13T00:33:27;9.10;99.90
6373;DHT22;3219;51.362;7.074;2023-03-13T00:35:57;9.10;99.90
6373;DHT22;3219;51.362;7.074;2023-03-13T00:38:24;9.10;99.90
6373;DHT22;3219;51.362;7.074;2023-03-13T00:40:59;9.10;99.90
6373;DHT22;3219;51.362;7.074;2023-03-13T00:43:26;9.10;99.90
6373;DHT22;3219;51.362;7.074;2023-03-13T00:45:53;9.10;99.90
6373;DHT22;3219;51.362;7.074;2023-03-13T00:48:20;9.00;99.90
6373;DHT22;3219;51.362;7.074;2023-03-13T00:50:47;9.00;99.90
6373;DHT22;3219;51.362;7.074;2023-03-13T00:53:14;9.10;99.90
6373;DHT22;3219;51.362;7.074;2023-03-13T00:55:54;9.00;99.90
6373;DHT22;3219;51.362;7.074;2023-03-13T00:58:23;9.00;99.90
6373;DHT22;3219;51.362;7.074;2023-03-13T01:00:51;9.10;99.90
6373;DHT22;3219;51.362;7.074;2023-03-13T01:03:18;9.10;99.90
6373;DHT22;3219;51.362;7.074;2023-03-13T01:05:54;9.00;99.90
6373;DHT22;3219;51.362;7.074;2023-03-13T01:08:21;9.10;99.90
6373;DHT22;3219;51.362;7.074;2023-03-13T01:10:48;9.10;99.90
6373;DHT22;3219;51.362;7.074;2023-03-13T01:13:15;9.10;99.90
6373;DHT22;3219;51.362;7.074;2023-03-13T01:15:43;9.10;99.90
6373;DHT22;3219;51.362;7.074;2023-03-13T01:18:09;9.10;99.90
6373;DHT22;3219;51.362;7.074;2023-03-13T01:20:39;9.10;99.90
6373;DHT22;3219;51.362;7.074;2023-03-13T01:23:06;9.00;99.90
6373;DHT22;3219;51.362;7.074;2023-03-13T01:25:35;9.00;99.90
6373;DHT22;3219;51.362;7.074;2023-03-13T01:28:02;9.00;99.90
6373;DHT22;3219;51.362;7.074;2023-03-13T01:30:29;9.00;99.90
6373;DHT22;3219;51.362;7.074;2023-03-13T01:32:57;9.00;99.90
6373;DHT22;3219;51.362;7.074;2023-03-13T01:35:23;9.00;99.90
6373;DHT22;3219;51.362;7.074;2023-03-13T01:37:50;8.90;99.90
6373;DHT22;3219;51.362;7.074;2023-03-13T01:40:17;8.90;99.90
6373;DHT22;3219;51.362;7.074;2023-03-13T01:42:51;8.90;99.90
6373;DHT22;3219;51.362;7.074;2023-03-13T01:48:26;8.90;99.90
6373;DHT22;3219;51.362;7.074;2023-03-13T01:50:56;8.80;99.90
6373;DHT22;3219;51.362;7.074;2023-03-13T01:53:24;8.90;99.90
6373;DHT22;3219;51.362;7.074;2023-03-13T01:55:52;8.80;99.90
6373;DHT22;3219;51.362;7.074;2023-03-13T01:58:19;8.90;99.90
6373;DHT22;3219;51.362;7.074;2023-03-13T02:00:47;8.80;99.90
6373;DHT22;3219;51.362;7.074;2023-03-13T02:03:16;8.90;99.90
6373;DHT22;3219;51.362;7.074;2023-03-13T02:05:46;8.90;99.90
6373;DHT22;3219;51.362;7.074;2023-03-13T02:08:17;8.90;99.90
6373;DHT22;3219;51.362;7.074;2023-03-13T02:10:49;8.90;99.90
6373;DHT22;3219;51.362;7.074;2023-03-13T02:13:17;8.90;99.90
6373;DHT22;3219;51.362;7.074;2023-03-13T02:15:45;8.90;99.90
6373;DHT22;3219;51.362;7.074;2023-03-13T02:18:13;8.90;99.90
6373;DHT22;3219;51.362;7.074;2023-03-13T02:20:40;8.90;99.90
6373;DHT22;3219;51.362;7.074;2023-03-13T02:23:13;8.90;99.90
6373;DHT22;3219;51.362;7.074;2023-03-13T02:25:46;8.90;99.90
6373;DHT22;3219;51.362;7.074;2023-03-13T02:28:16;8.90;99.90
6373;DHT22;3219;51.362;7.074;2023-03-13T02:30:44;8.80;99.90
6373;DHT22;3219;51.362;7.074;2023-03-13T02:33:11;8.90;99.90
6373;DHT22;3219;51.362;7.074;2023-03-13T02:35:39;8.90;99.90
6373;DHT22;3219;51.362;7.074;2023-03-13T02:38:08;8.90;99.90
6373;DHT22;3219;51.362;7.074;2023-03-13T02:40:38;8.90;99.90
6373;DHT22;3219;51.362;7.074;2023-03-13T02:43:10;8.90;99.90
6373;DHT22;3219;51.362;7.074;2023-03-13T02:45:37;8.90;99.90
6373;DHT22;3219;51.362;7.074;2023-03-13T02:48:04;8.90;99.90
6373;DHT22;3219;51.362;7.074;2023-03-13T02:50:32;8.90;99.90
6373;DHT22;3219;51.362;7.074;2023-03-13T02:53:01;8.90;99.90
6373;DHT22;3219;51.362;7.074;2023-03-13T02:55:31;8.90;99.90
6373;DHT22;3219;51.362;7.074;2023-03-13T02:58:00;8.90;99.90
6373;DHT22;3219;51.362;7.074;2023-03-13T03:00:28;9.00;99.90
6373;DHT22;3219;51.362;7.074;2023-03-13T03:02:55;8.90;99.90
6373;DHT22;3219;51.362;7.074;2023-03-13T03:05:22;9.00;99.90
6373;DHT22;3219;51.362;7.074;2023-03-13T03:07:49;9.00;99.90
6373;DHT22;3219;51.362;7.074;2023-03-13T03:10:16;9.00;99.90
6373;DHT22;3219;51.362;7.074;2023-03-13T03:12:43;9.00;99.90
6373;DHT22;3219;51.362;7.074;2023-03-13T03:15:11;8.90;99.90
6373;DHT22;3219;51.362;7.074;2023-03-13T03:17:39;9.00;99.90
6373;DHT22;3219;51.362;7.074;2023-03-13T03:20:06;9.00;99.90
6373;DHT22;3219;51.362;7.074;2023-03-13T03:22:36;9.00;99.90
6373;DHT22;3219;51.362;7.074;2023-03-13T03:25:05;9.00;99.90
6373;DHT22;3219;51.362;7.074;2023-03-13T03:27:33;9.00;99.90
6373;DHT22;3219;51.362;7.074;2023-03-13T03:30:01;9.00;99.90
6373;DHT22;3219;51.362;7.074;2023-03-13T03:32:28;9.10;99.90
6373;DHT22;3219;51.362;7.074;2023-03-13T03:34:56;9.00;99.90
6373;DHT22;3219;51.362;7.074;2023-03-13T03:37:22;9.00;99.90
6373;DHT22;3219;51.362;7.074;2023-03-13T03:39:49;9.10;99.90
6373;DHT22;3219;51.362;7.074;2023-03-13T03:42:16;9.10;99.90
6373;DHT22;3219;51.362;7.074;2023-03-13T03:44:43;9.10;99.90
6373;DHT22;3219;51.362;7.074;2023-03-13T03:47:10;9.10;99.90
6373;DHT22;3219;51.362;7.074;2023-03-13T03:49:37;9.10;99.90
6373;DHT22;3219;51.362;7.074;2023-03-13T03:52:05;9.10;99.90
6373;DHT22;3219;51.362;7.074;2023-03-13T03:54:32;9.10;99.90
6373;DHT22;3219;51.362;7.074;2023-03-13T03:56:59;9.20;99.90
6373;DHT22;3219;51.362;7.074;2023-03-13T03:59:26;9.20;99.90
6373;DHT22;3219;51.362;7.074;2023-03-13T04:01:53;9.20;99.90
6373;DHT22;3219;51.362;7.074;2023-03-13T04:04:20;9.30;99.90
6373;DHT22;3219;51.362;7.074;2023-03-13T04:06:46;9.30;99.90
6373;DHT22;3219;51.362;7.074;2023-03-13T04:09:15;9.30;99.90
6373;DHT22;3219;51.362;7.074;2023-03-13T04:11:41;9.30;99.90
6373;DHT22;3219;51.362;7.074;2023-03-13T04:14:08;9.30;99.90
6373;DHT22;3219;51.362;7.074;2023-03-13T04:16:35;9.40;99.90
6373;DHT22;3219;51.362;7.074;2023-03-13T04:19:02;9.30;99.90
6373;DHT22;3219;51.362;7.074;2023-03-13T04:21:28;9.30;99.90
6373;DHT22;3219;51.362;7.074;2023-03-13T04:23:55;9.40;99.90
6373;DHT22;3219;51.362;7.074;2023-03-13T04:26:23;9.40;99.90
6373;DHT22;3219;51.362;7.074;2023-03-13T04:28:50;9.40;99.90
6373;DHT22;3219;51.362;7.074;2023-03-13T04:31:17;9.40;99.90
6373;DHT22;3219;51.362;7.074;2023-03-13T04:33:44;9.40;99.90
6373;DHT22;3219;51.362;7.074;2023-03-13T04:36:10;9.40;99.90
6373;DHT22;3219;51.362;7.074;2023-03-13T04:38:37;9.30;99.90
6373;DHT22;3219;51.362;7.074;2023-03-13T04:41:04;9.40;99.90
6373;DHT22;3219;51.362;7.074;2023-03-13T04:43:32;9.40;99.90
6373;DHT22;3219;51.362;7.074;2023-03-13T04:45:59;9.40;99.90
6373;DHT22;3219;51.362;7.074;2023-03-13T04:48:25;9.40;99.90
6373;DHT22;3219;51.362;7.074;2023-03-13T04:50:52;9.40;99.90
6373;DHT22;3219;51.362;7.074;2023-03-13T04:53:19;9.40;99.90
6373;DHT22;3219;51.362;7.074;2023-03-13T04:55:46;9.50;99.90
6373;DHT22;3219;51.362;7.074;2023-03-13T04:58:13;9.50;99.90
6373;DHT22;3219;51.362;7.074;2023-03-13T05:00:42;9.50;99.90
6373;DHT22;3219;51.362;7.074;2023-03-13T05:03:08;9.50;99.90
6373;DHT22;3219;51.362;7.074;2023-03-13T05:05:35;9.50;99.90
6373;DHT22;3219;51.362;7.074;2023-03-13T05:08:02;9.50;99.90
6373;DHT22;3219;51.362;7.074;2023-03-13T05:10:29;9.50;99.90
6373;DHT22;3219;51.362;7.074;2023-03-13T05:12:56;9.50;99.90
6373;DHT22;3219;51.362;7.074;2023-03-13T05:15:23;9.60;99.90
6373;DHT22;3219;51.362;7.074;2023-03-13T05:17:51;9.60;99.90
6373;DHT22;3219;51.362;7.074;2023-03-13T05:20:17;9.70;99.90
6373;DHT22;3219;51.362;7.074;2023-03-13T05:22:44;9.70;99.90
6373;DHT22;3219;51.362;7.074;2023-03-13T05:25:11;9.70;99.90
6373;DHT22;3219;51.362;7.074;2023-03-13T05:27:38;9.70;99.90
6373;DHT22;3219;51.362;7.074;2023-03-13T05:30:06;9.80;99.90
6373;DHT22;3219;51.362;7.074;2023-03-13T05:32:33;9.90;99.90
6373;DHT22;3219;51.362;7.074;2023-03-13T05:35:01;9.90;99.90
6373;DHT22;3219;51.362;7.074;2023-03-13T05:37:28;10.00;99.90
6373;DHT22;3219;51.362;7.074;2023-03-13T05:39:54;10.00;99.90
6373;DHT22;3219;51.362;7.074;2023-03-13T05:42:21;10.00;99.90
6373;DHT22;3219;51.362;7.074;2023-03-13T05:44:48;10.10;99.90
6373;DHT22;3219;51.362;7.074;2023-03-13T05:47:14;10.10;99.90
6373;DHT22;3219;51.362;7.074;2023-03-13T05:49:42;10.10;99.90
6373;DHT22;3219;51.362;7.074;2023-03-13T05:52:11;10.20;99.90
6373;DHT22;3219;51.362;7.074;2023-03-13T05:54:38;10.20;99.90
6373;DHT22;3219;51.362;7.074;2023-03-13T05:57:04;10.20;99.90
6373;DHT22;3219;51.362;7.074;2023-03-13T05:59:31;10.30;99.90
6373;DHT22;3219;51.362;7.074;2023-03-13T06:01:58;10.30;99.90
6373;DHT22;3219;51.362;7.074;2023-03-13T06:04:25;10.40;99.90
6373;DHT22;3219;51.362;7.074;2023-03-13T06:06:51;10.40;99.90
6373;DHT22;3219;51.362;7.074;2023-03-13T06:09:20;10.40;99.90
6373;DHT22;3219;51.362;7.074;2023-03-13T06:11:46;10.50;99.90
6373;DHT22;3219;51.362;7.074;2023-03-13T06:14:13;10.50;99.90
6373;DHT22;3219;51.362;7.074;2023-03-13T06:16:40;10.50;99.90
6373;DHT22;3219;51.362;7.074;2023-03-13T06:19:07;10.60;99.90
6373;DHT22;3219;51.362;7.074;2023-03-13T06:21:33;10.70;99.90
6373;DHT22;3219;51.362;7.074;2023-03-13T06:24:00;10.70;99.90
6373;DHT22;3219;51.362;7.074;2023-03-13T06:26:28;10.80;99.90
6373;DHT22;3219;51.362;7.074;2023-03-13T06:28:55;10.80;99.90
6373;DHT22;3219;51.362;7.074;2023-03-13T06:31:22;10.90;99.90
6373;DHT22;3219;51.362;7.074;2023-03-13T06:33:52;10.90;99.90
6373;DHT22;3219;51.362;7.074;2023-03-13T06:36:19;10.90;99.90
6373;DHT22;3219;51.362;7.074;2023-03-13T06:38:46;11.00;99.90
6373;DHT22;3219;51.362;7.074;2023-03-13T06:41:12;11.00;99.90
6373;DHT22;3219;51.362;7.074;2023-03-13T06:43:41;11.10;99.90
6373;DHT22;3219;51.362;7.074;2023-03-13T06:46:08;11.10;99.90
6373;DHT22;3219;51.362;7.074;2023-03-13T06:48:40;11.20;99.90
6373;DHT22;3219;51.362;7.074;2023-03-13T06:51:10;11.20;99.90
6373;DHT22;3219;51.362;7.074;2023-03-13T06:53:37;11.20;99.90
6373;DHT22;3219;51.362;7.074;2023-03-13T06:56:04;11.30;99.90
6373;DHT22;3219;51.362;7.074;2023-03-13T06:58:31;11.30;99.90
6373;DHT22;3219;51.362;7.074;2023-03-13T07:01:05;11.30;99.90
6373;DHT22;3219;51.362;7.074;2023-03-13T07:03:32;11.40;99.90
6373;DHT22;3219;51.362;7.074;2023-03-13T07:05:59;11.40;99.90
6373;DHT22;3219;51.362;7.074;2023-03-13T07:08:26;11.40;99.90
6373;DHT22;3219;51.362;7.074;2023-03-13T07:10:56;11.40;99.90
6373;DHT22;3219;51.362;7.074;2023-03-13T07:13:23;11.40;99.90
6373;DHT22;3219;51.362;7.074;2023-03-13T07:15:50;11.40;99.90
6373;DHT22;3219;51.362;7.074;2023-03-13T07:18:19;11.40;99.90
6373;DHT22;3219;51.362;7.074;2023-03-13T07:20:51;11.50;99.90
6373;DHT22;3219;51.362;7.074;2023-03-13T07:23:18;11.50;99.90
6373;DHT22;3219;51.362;7.074;2023-03-13T07:25:52;11.50;99.90
6373;DHT22;3219;51.362;7.074;2023-03-13T07:28:19;11.60;99.90
6373;DHT22;3219;51.362;7.074;2023-03-13T07:30:45;11.60;99.90
6373;DHT22;3219;51.362;7.074;2023-03-13T07:33:12;11.60;99.90
6373;DHT22;3219;51.362;7.074;2023-03-13T07:35:40;11.70;99.90
6373;DHT22;3219;51.362;7.074;2023-03-13T07:38:12;11.70;99.90
6373;DHT22;3219;51.362;7.074;2023-03-13T07:40:45;11.70;99.90
6373;DHT22;3219;51.362;7.074;2023-03-13T07:43:12;11.80;99.90
6373;DHT22;3219;51.362;7.074;2023-03-13T07:45:39;11.90;99.90
6373;DHT22;3219;51.362;7.074;2023-03-13T07:48:14;11.90;99.90
6373;DHT22;3219;51.362;7.074;2023-03-13T07:50:42;11.90;99.90
6373;DHT22;3219;51.362;7.074;2023-03-13T07:53:09;11.90;99.90
6373;DHT22;3219;51.362;7.074;2023-03-13T07:55:36;11.90;99.90
6373;DHT22;3219;51.362;7.074;2023-03-13T07:58:03;11.90;99.90
6373;DHT22;3219;51.362;7.074;2023-03-13T08:00:29;11.90;99.90
6373;DHT22;3219;51.362;7.074;2023-03-13T08:02:56;11.90;99.90
6373;DHT22;3219;51.362;7.074;2023-03-13T08:05:23;11.90;99.90
6373;DHT22;3219;51.362;7.074;2023-03-13T08:07:51;11.90;99.90
6373;DHT22;3219;51.362;7.074;2023-03-13T08:10:18;11.90;99.90
6373;DHT22;3219;51.362;7.074;2023-03-13T08:12:44;11.90;99.90
6373;DHT22;3219;51.362;7.074;2023-03-13T08:15:11;11.90;99.90
6373;DHT22;3219;51.362;7.074;2023-03-13T08:17:38;11.90;99.90
6373;DHT22;3219;51.362;7.074;2023-03-13T08:20:06;12.00;99.90
6373;DHT22;3219;51.362;7.074;2023-03-13T08:22:34;11.90;99.90
6373;DHT22;3219;51.362;7.074;2023-03-13T08:25:03;11.90;99.90
6373;DHT22;3219;51.362;7.074;2023-03-13T08:27:29;11.90;99.90
6373;DHT22;3219;51.362;7.074;2023-03-13T08:29:56;11.90;99.90
6373;DHT22;3219;51.362;7.074;2023-03-13T08:32:23;11.90;99.90
6373;DHT22;3219;51.362;7.074;2023-03-13T08:34:49;11.90;99.90
6373;DHT22;3219;51.362;7.074;2023-03-13T08:37:16;11.90;99.90
6373;DHT22;3219;51.362;7.074;2023-03-13T08:39:43;11.90;99.90
6373;DHT22;3219;51.362;7.074;2023-03-13T08:42:11;12.00;99.90
6373;DHT22;3219;51.362;7.074;2023-03-13T08:44:39;12.00;99.90
6373;DHT22;3219;51.362;7.074;2023-03-13T08:47:06;12.00;99.90
6373;DHT22;3219;51.362;7.074;2023-03-13T08:49:33;12.00;99.90
6373;DHT22;3219;51.362;7.074;2023-03-13T08:52:00;12.00;99.90
6373;DHT22;3219;51.362;7.074;2023-03-13T08:54:27;12.10;99.90
6373;DHT22;3219;51.362;7.074;2023-03-13T08:56:53;12.10;99.90
6373;DHT22;3219;51.362;7.074;2023-03-13T08:59:21;12.10;99.90
6373;DHT22;3219;51.362;7.074;2023-03-13T09:01:48;12.10;99.90
6373;DHT22;3219;51.362;7.074;2023-03-13T09:04:15;12.10;99.90
6373;DHT22;3219;51.362;7.074;2023-03-13T09:06:42;12.20;99.90
6373;DHT22;3219;51.362;7.074;2023-03-13T09:09:08;12.10;99.90
6373;DHT22;3219;51.362;7.074;2023-03-13T09:11:36;12.20;99.90
6373;DHT22;3219;51.362;7.074;2023-03-13T09:14:04;12.10;99.90
6373;DHT22;3219;51.362;7.074;2023-03-13T09:16:33;12.20;99.90
6373;DHT22;3219;51.362;7.074;2023-03-13T09:19:00;12.30;99.90
6373;DHT22;3219;51.362;7.074;2023-03-13T09:21:28;12.40;99.90
6373;DHT22;3219;51.362;7.074;2023-03-13T09:23:55;12.50;99.90
6373;DHT22;3219;51.362;7.074;2023-03-13T09:26:23;12.60;99.90
6373;DHT22;3219;51.362;7.074;2023-03-13T09:28:51;12.70;99.90
6373;DHT22;3219;51.362;7.074;2023-03-13T09:31:20;12.80;99.90
6373;DHT22;3219;51.362;7.074;2023-03-13T09:33:49;12.80;99.90
6373;DHT22;3219;51.362;7.074;2023-03-13T09:36:16;12.70;99.90
6373;DHT22;3219;51.362;7.074;2023-03-13T09:38:43;12.70;99.90
6373;DHT22;3219;51.362;7.074;2023-03-13T09:41:22;12.70;99.90
6373;DHT22;3219;51.362;7.074;2023-03-13T09:43:52;12.80;99.90
6373;DHT22;3219;51.362;7.074;2023-03-13T09:46:23;12.70;99.90
6373;DHT22;3219;51.362;7.074;2023-03-13T09:48:55;12.60;99.90
6373;DHT22;3219;51.362;7.074;2023-03-13T09:51:26;12.60;99.90
6373;DHT22;3219;51.362;7.074;2023-03-13T09:53:57;12.60;99.90
6373;DHT22;3219;51.362;7.074;2023-03-13T09:56:29;12.80;99.90
6373;DHT22;3219;51.362;7.074;2023-03-13T09:58:59;12.80;99.90
6373;DHT22;3219;51.362;7.074;2023-03-13T10:01:29;12.90;99.90
6373;DHT22;3219;51.362;7.074;2023-03-13T10:04:06;12.90;99.90
6373;DHT22;3219;51.362;7.074;2023-03-13T10:06:39;12.80;99.90
6373;DHT22;3219;51.362;7.074;2023-03-13T10:09:16;12.70;99.90
6373;DHT22;3219;51.362;7.074;2023-03-13T10:11:52;12.70;99.90
6373;DHT22;3219;51.362;7.074;2023-03-13T10:14:28;12.80;99.90
6373;DHT22;3219;51.362;7.074;2023-03-13T10:16:59;13.00;99.90
6373;DHT22;3219;51.362;7.074;2023-03-13T10:19:33;13.20;99.90
6373;DHT22;3219;51.362;7.074;2023-03-13T10:22:04;13.40;99.90
6373;DHT22;3219;51.362;7.074;2023-03-13T10:24:39;13.40;99.90
6373;DHT22;3219;51.362;7.074;2023-03-13T10:27:08;13.40;99.90
6373;DHT22;3219;51.362;7.074;2023-03-13T10:29:34;13.50;99.90
6373;DHT22;3219;51.362;7.074;2023-03-13T10:32:05;13.60;99.90
6373;DHT22;3219;51.362;7.074;2023-03-13T10:34:49;13.60;99.90
6373;DHT22;3219;51.362;7.074;2023-03-13T10:37:20;13.60;99.90
6373;DHT22;3219;51.362;7.074;2023-03-13T10:39:47;13.60;99.90
6373;DHT22;3219;51.362;7.074;2023-03-13T10:42:21;13.50;99.90
6373;DHT22;3219;51.362;7.074;2023-03-13T10:44:49;13.50;99.90
6373;DHT22;3219;51.362;7.074;2023-03-13T10:47:21;13.50;99.90
6373;DHT22;3219;51.362;7.074;2023-03-13T10:49:51;13.60;99.90
6373;DHT22;3219;51.362;7.074;2023-03-13T10:52:33;13.50;99.90
6373;DHT22;3219;51.362;7.074;2023-03-13T10:55:01;13.50;99.90
6373;DHT22;3219;51.362;7.074;2023-03-13T10:57:29;13.60;99.90
6373;DHT22;3219;51.362;7.074;2023-03-13T10:59:57;13.60;99.90
6373;DHT22;3219;51.362;7.074;2023-03-13T11:02:26;13.60;99.90
6373;DHT22;3219;51.362;7.074;2023-03-13T11:04:55;13.70;99.90
6373;DHT22;3219;51.362;7.074;2023-03-13T11:07:29;13.80;99.90
6373;DHT22;3219;51.362;7.074;2023-03-13T11:10:01;13.80;99.90
6373;DHT22;3219;51.362;7.074;2023-03-13T11:12:34;13.80;99.90
6373;DHT22;3219;51.362;7.074;2023-03-13T11:15:05;13.80;99.90
6373;DHT22;3219;51.362;7.074;2023-03-13T11:17:39;13.80;99.90
6373;DHT22;3219;51.362;7.074;2023-03-13T11:20:14;13.80;99.90
6373;DHT22;3219;51.362;7.074;2023-03-13T11:22:54;13.90;99.90
6373;DHT22;3219;51.362;7.074;2023-03-13T11:25:24;14.00;99.90
6373;DHT22;3219;51.362;7.074;2023-03-13T11:28:07;14.00;99.90
6373;DHT22;3219;51.362;7.074;2023-03-13T11:30:48;14.00;99.90
6373;DHT22;3219;51.362;7.074;2023-03-13T11:33:26;14.00;99.90
6373;DHT22;3219;51.362;7.074;2023-03-13T11:35:59;14.00;99.90
6373;DHT22;3219;51.362;7.074;2023-03-13T11:38:31;14.10;99.90
6373;DHT22;3219;51.362;7.074;2023-03-13T11:41:10;14.20;99.90
6373;DHT22;3219;51.362;7.074;2023-03-13T11:43:51;14.20;99.90
6373;DHT22;3219;51.362;7.074;2023-03-13T11:46:27;14.20;99.90
6373;DHT22;3219;51.362;7.074;2023-03-13T11:49:12;14.30;99.90
6373;DHT22;3219;51.362;7.074;2023-03-13T11:52:01;14.30;99.90
6373;DHT22;3219;51.362;7.074;2023-03-13T11:57:24;14.30;99.90
6373;DHT22;3219;51.362;7.074;2023-03-13T12:00:06;14.40;99.90
6373;DHT22;3219;51.362;7.074;2023-03-13T12:02:42;14.40;99.90
6373;DHT22;3219;51.362;7.074;2023-03-13T12:05:15;14.50;99.90
6373;DHT22;3219;51.362;7.074;2023-03-13T12:07:48;14.70;99.90
6373;DHT22;3219;51.362;7.074;2023-03-13T12:10:19;14.80;99.90
6373;DHT22;3219;51.362;7.074;2023-03-13T12:12:51;14.90;99.90
6373;DHT22;3219;51.362;7.074;2023-03-13T12:15:24;14.80;99.90
6373;DHT22;3219;51.362;7.074;2023-03-13T12:17:56;14.90;99.90
6373;DHT22;3219;51.362;7.074;2023-03-13T12:20:27;14.90;99.90
6373;DHT22;3219;51.362;7.074;2023-03-13T12:23:13;14.80;99.90
6373;DHT22;3219;51.362;7.074;2023-03-13T12:25:46;14.70;99.90
6373;DHT22;3219;51.362;7.074;2023-03-13T12:28:21;14.70;99.90
6373;DHT22;3219;51.362;7.074;2023-03-13T12:30:53;14.70;99.90
6373;DHT22;3219;51.362;7.074;2023-03-13T12:33:24;14.80;99.90
6373;DHT22;3219;51.362;7.074;2023-03-13T12:35:58;14.80;99.90
6373;DHT22;3219;51.362;7.074;2023-03-13T12:38:32;14.80;99.90
6373;DHT22;3219;51.362;7.074;2023-03-13T12:41:11;14.80;99.90
6373;DHT22;3219;51.362;7.074;2023-03-13T12:43:42;14.80;99.90
6373;DHT22;3219;51.362;7.074;2023-03-13T12:46:32;14.80;99.90
6373;DHT22;3219;51.362;7.074;2023-03-13T12:49:22;14.80;99.90
6373;DHT22;3219;51.362;7.074;2023-03-13T12:52:07;14.80;99.90
6373;DHT22;3219;51.362;7.074;2023-03-13T12:58:11;14.90;99.90
6373;DHT22;3219;51.362;7.074;2023-03-13T13:00:42;14.90;99.90
6373;DHT22;3219;51.362;7.074;2023-03-13T13:03:21;14.90;99.90
6373;DHT22;3219;51.362;7.074;2023-03-13T13:06:07;14.90;99.90
6373;DHT22;3219;51.362;7.074;2023-03-13T13:08:40;14.90;99.90
6373;DHT22;3219;51.362;7.074;2023-03-13T13:11:44;14.90;99.90
6373;DHT22;3219;51.362;7.074;2023-03-13T13:17:33;14.90;99.90
6373;DHT22;3219;51.362;7.074;2023-03-13T13:23:29;14.80;99.90
6373;DHT22;3219;51.362;7.074;2023-03-13T13:32:45;14.80;99.90
6373;DHT22;3219;51.362;7.074;2023-03-13T13:35:29;14.80;99.90
6373;DHT22;3219;51.362;7.074;2023-03-13T13:41:25;14.80;99.90
6373;DHT22;3219;51.362;7.074;2023-03-13T13:44:20;14.80;99.90
6373;DHT22;3219;51.362;7.074;2023-03-13T13:46:47;14.90;99.90
6373;DHT22;3219;51.362;7.074;2023-03-13T13:49:17;14.90;99.90
6373;DHT22;3219;51.362;7.074;2023-03-13T13:54:59;14.80;99.90
6373;DHT22;3219;51.362;7.074;2023-03-13T13:57:28;14.80;99.90
6373;DHT22;3219;51.362;7.074;2023-03-13T14:00:00;14.80;99.90
6373;DHT22;3219;51.362;7.074;2023-03-13T14:02:33;14.90;99.90
6373;DHT22;3219;51.362;7.074;2023-03-13T14:05:06;14.90;99.90
6373;DHT22;3219;51.362;7.074;2023-03-13T14:07:45;14.90;99.90
6373;DHT22;3219;51.362;7.074;2023-03-13T14:10:20;14.90;99.90
6373;DHT22;3219;51.362;7.074;2023-03-13T14:12:52;14.90;99.90
6373;DHT22;3219;51.362;7.074;2023-03-13T14:15:23;14.80;99.90
6373;DHT22;3219;51.362;7.074;2023-03-13T14:17:52;14.70;99.90
6373;DHT22;3219;51.362;7.074;2023-03-13T14:20:24;14.70;99.90
6373;DHT22;3219;51.362;7.074;2023-03-13T14:22:53;14.60;99.90
6373;DHT22;3219;51.362;7.074;2023-03-13T14:25:20;14.60;99.90
6373;DHT22;3219;51.362;7.074;2023-03-13T14:27:48;14.60;99.90
6373;DHT22;3219;51.362;7.074;2023-03-13T14:30:16;14.70;99.90
6373;DHT22;3219;51.362;7.074;2023-03-13T14:32:44;14.70;99.90
6373;DHT22;3219;51.362;7.074;2023-03-13T14:35:14;14.70;99.90
6373;DHT22;3219;51.362;7.074;2023-03-13T14:37:44;14.70;99.90
6373;DHT22;3219;51.362;7.074;2023-03-13T14:40:20;14.70;99.90
6373;DHT22;3219;51.362;7.074;2023-03-13T14:42:50;14.70;99.90
6373;DHT22;3219;51.362;7.074;2023-03-13T14:45:22;14.70;99.90
6373;DHT22;3219;51.362;7.074;2023-03-13T14:47:51;14.80;99.90
6373;DHT22;3219;51.362;7.074;2023-03-13T14:50:20;14.80;99.90
6373;DHT22;3219;51.362;7.074;2023-03-13T14:52:51;14.70;99.90
6373;DHT22;3219;51.362;7.074;2023-03-13T14:55:30;14.70;99.90
6373;DHT22;3219;51.362;7.074;2023-03-13T14:57:59;14.60;99.90
6373;DHT22;3219;51.362;7.074;2023-03-13T15:00:33;14.60;99.90
6373;DHT22;3219;51.362;7.074;2023-03-13T15:03:18;14.60;99.90
6373;DHT22;3219;51.362;7.074;2023-03-13T15:05:47;14.60;99.90
6373;DHT22;3219;51.362;7.074;2023-03-13T15:08:17;14.50;99.90
6373;DHT22;3219;51.362;7.074;2023-03-13T15:10:44;14.50;99.90
6373;DHT22;3219;51.362;7.074;2023-03-13T15:13:16;14.50;99.90
6373;DHT22;3219;51.362;7.074;2023-03-13T15:15:43;14.60;99.90
6373;DHT22;3219;51.362;7.074;2023-03-13T15:18:17;14.60;99.90
6373;DHT22;3219;51.362;7.074;2023-03-13T15:20:48;14.60;99.90
6373;DHT22;3219;51.362;7.074;2023-03-13T15:23:16;14.60;99.90
6373;DHT22;3219;51.362;7.074;2023-03-13T15:25:43;14.60;99.90
6373;DHT22;3219;51.362;7.074;2023-03-13T15:28:13;14.60;99.90
6373;DHT22;3219;51.362;7.074;2023-03-13T15:30:41;14.60;99.90
6373;DHT22;3219;51.362;7.074;2023-03-13T15:33:12;14.50;99.90
6373;DHT22;3219;51.362;7.074;2023-03-13T15:35:39;14.50;99.90
6373;DHT22;3219;51.362;7.074;2023-03-13T15:38:11;14.50;99.90
6373;DHT22;3219;51.362;7.074;2023-03-13T15:40:40;14.50;99.90
6373;DHT22;3219;51.362;7.074;2023-03-13T15:43:08;14.60;99.90
6373;DHT22;3219;51.362;7.074;2023-03-13T15:45:36;14.60;99.90
6373;DHT22;3219;51.362;7.074;2023-03-13T15:48:13;14.70;99.90
6373;DHT22;3219;51.362;7.074;2023-03-13T15:50:41;14.60;99.90
6373;DHT22;3219;51.362;7.074;2023-03-13T15:53:16;14.50;99.90
6373;DHT22;3219;51.362;7.074;2023-03-13T15:55:45;14.60;99.90
6373;DHT22;3219;51.362;7.074;2023-03-13T15:58:12;14.60;99.90
6373;DHT22;3219;51.362;7.074;2023-03-13T16:00:40;14.60;99.90
6373;DHT22;3219;51.362;7.074;2023-03-13T16:03:11;14.70;99.90
6373;DHT22;3219;51.362;7.074;2023-03-13T16:05:39;14.60;99.90
6373;DHT22;3219;51.362;7.074;2023-03-13T16:08:08;14.60;99.90
6373;DHT22;3219;51.362;7.074;2023-03-13T16:10:35;14.60;99.90
6373;DHT22;3219;51.362;7.074;2023-03-13T16:13:03;14.60;99.90
6373;DHT22;3219;51.362;7.074;2023-03-13T16:15:31;14.50;99.90
6373;DHT22;3219;51.362;7.074;2023-03-13T16:17:57;14.50;99.90
6373;DHT22;3219;51.362;7.074;2023-03-13T16:20:24;14.50;99.90
6373;DHT22;3219;51.362;7.074;2023-03-13T16:22:53;14.40;99.90
6373;DHT22;3219;51.362;7.074;2023-03-13T16:25:21;14.40;99.90
6373;DHT22;3219;51.362;7.074;2023-03-13T16:27:48;14.30;99.90
6373;DHT22;3219;51.362;7.074;2023-03-13T16:30:22;14.20;99.90
6373;DHT22;3219;51.362;7.074;2023-03-13T16:32:49;14.20;99.90
6373;DHT22;3219;51.362;7.074;2023-03-13T16:35:16;14.20;99.90
6373;DHT22;3219;51.362;7.074;2023-03-13T16:37:43;14.10;99.90
6373;DHT22;3219;51.362;7.074;2023-03-13T16:40:13;14.10;99.90
6373;DHT22;3219;51.362;7.074;2023-03-13T16:42:41;14.00;99.90
6373;DHT22;3219;51.362;7.074;2023-03-13T16:45:09;14.00;99.90
6373;DHT22;3219;51.362;7.074;2023-03-13T16:47:37;13.80;99.90
6373;DHT22;3219;51.362;7.074;2023-03-13T16:50:22;13.80;99.90
6373;DHT22;3219;51.362;7.074;2023-03-13T16:52:49;13.60;99.90